createdAt,value
2022-08-28T00:00:29.447Z,15.67
2022-08-28T00:03:17.497Z,16.70
2022-08-28T00:06:04.628Z,14.70
2022-08-28T00:08:51.627Z,17.03
2022-08-28T00:11:38.421Z,16.93
2022-08-28T00:14:26.187Z,16.20
2022-08-28T00:17:14.367Z,18.20
2022-08-28T00:20:01.551Z,17.63
2022-08-28T00:22:48.833Z,18.23
2022-08-28T00:25:36.427Z,16.43
2022-08-28T00:28:24.266Z,20.13
2022-08-28T00:31:13.194Z,16.93
2022-08-28T00:34:03.094Z,15.47
2022-08-28T00:36:50.373Z,15.50
2022-08-28T00:39:38.439Z,17.70
2022-08-28T00:42:25.441Z,15.57
2022-08-28T00:45:12.609Z,17.47
2022-08-28T00:47:59.705Z,16.40
2022-08-28T00:51:05.345Z,15.70
2022-08-28T00:53:55.573Z,15.13
2022-08-28T00:56:44.854Z,16.20
2022-08-28T00:59:31.972Z,15.50
2022-08-28T01:02:19.062Z,15.03
2022-08-28T01:05:09.803Z,14.97
2022-08-28T01:07:58.680Z,17.90
2022-08-28T01:10:51.144Z,16.53
2022-08-28T01:13:40.508Z,16.43
2022-08-28T01:16:33.694Z,14.40
2022-08-28T01:19:27.231Z,14.30
2022-08-28T01:22:21.353Z,15.67
2022-08-28T01:25:13.231Z,14.37
2022-08-28T01:28:00.358Z,16.73
2022-08-28T01:30:49.688Z,15.40
2022-08-28T01:33:37.031Z,17.07
2022-08-28T01:36:29.669Z,17.07
2022-08-28T01:39:17.783Z,16.10
2022-08-28T01:42:06.836Z,16.47
2022-08-28T01:44:54.249Z,14.40
2022-08-28T01:47:42.241Z,16.90
2022-08-28T01:50:29.259Z,17.80
2022-08-28T01:53:18.070Z,18.30
2022-08-28T01:56:09.523Z,19.23
2022-08-28T01:58:58.124Z,17.60
2022-08-28T02:01:45.798Z,15.87
2022-08-28T02:04:33.197Z,17.77
2022-08-28T02:07:20.516Z,16.83
2022-08-28T02:10:08.026Z,16.87
2022-08-28T02:12:55.596Z,15.10
2022-08-28T02:15:48.819Z,19.97
2022-08-28T02:18:35.985Z,16.77
2022-08-28T02:21:22.732Z,17.17
2022-08-28T02:24:09.687Z,16.37
2022-08-28T02:26:56.587Z,16.43
2022-08-28T02:29:44.117Z,15.27
2022-08-28T02:32:32.597Z,16.77
2022-08-28T02:35:22.540Z,17.50
2022-08-28T02:38:10.342Z,18.10
2022-08-28T02:40:57.814Z,18.43
2022-08-28T02:43:45.271Z,27.07
2022-08-28T02:46:32.580Z,16.43
2022-08-28T02:49:21.236Z,17.80
2022-08-28T02:52:08.152Z,15.87
2022-08-28T02:54:54.949Z,17.00
2022-08-28T02:57:42.573Z,16.57
2022-08-28T03:00:29.884Z,16.37
2022-08-28T03:03:17.147Z,18.77
2022-08-28T03:06:06.020Z,19.30
2022-08-28T03:08:53.136Z,17.00
2022-08-28T03:11:41.206Z,19.53
2022-08-28T03:14:28.224Z,18.60
2022-08-28T03:17:15.540Z,15.90
2022-08-28T03:20:03.059Z,19.70
2022-08-28T03:23:08.990Z,19.53
2022-08-28T03:25:58.761Z,19.70
2022-08-28T03:28:49.777Z,17.37
2022-08-28T03:31:38.911Z,17.50
2022-08-28T03:34:26.043Z,16.93
2022-08-28T03:37:13.117Z,18.37
2022-08-28T03:40:03.113Z,18.30
2022-08-28T03:42:53.272Z,18.30
2022-08-28T03:45:41.286Z,16.87
2022-08-28T03:48:29.707Z,20.77
2022-08-28T03:51:18.798Z,19.20
2022-08-28T03:54:09.708Z,20.80
2022-08-28T03:56:57.649Z,17.43
2022-08-28T03:59:44.682Z,17.70
2022-08-28T04:02:31.875Z,15.77
2022-08-28T04:05:19.288Z,22.60
2022-08-28T04:08:06.733Z,17.57
2022-08-28T04:10:54.884Z,17.13
2022-08-28T04:13:43.791Z,18.77
2022-08-28T04:16:31.903Z,17.37
2022-08-28T04:19:18.808Z,16.30
2022-08-28T04:22:05.959Z,17.33
2022-08-28T04:24:54.531Z,19.67
2022-08-28T04:27:41.584Z,16.03
2022-08-28T04:30:30.084Z,19.57
2022-08-28T04:33:18.676Z,15.47
2022-08-28T04:36:06.472Z,14.43
2022-08-28T04:38:53.105Z,16.87
2022-08-28T04:41:40.124Z,15.80
2022-08-28T04:44:27.420Z,16.17
2022-08-28T04:47:15.596Z,16.13
2022-08-28T04:50:02.882Z,16.60
2022-08-28T04:52:49.884Z,15.77
2022-08-28T04:55:53.552Z,19.13
2022-08-28T04:58:43.100Z,19.13
2022-08-28T05:01:30.525Z,19.33
2022-08-28T05:04:19.694Z,16.63
2022-08-28T05:07:07.209Z,18.03
2022-08-28T05:09:54.824Z,17.20
2022-08-28T05:12:42.047Z,19.97
2022-08-28T05:15:29.328Z,23.33
2022-08-28T05:18:17.772Z,19.17
2022-08-28T05:21:06.602Z,16.33
2022-08-28T05:23:56.427Z,16.93
2022-08-28T05:26:43.726Z,17.23
2022-08-28T05:29:35.049Z,20.63
2022-08-28T05:32:22.130Z,18.37
2022-08-28T05:35:09.311Z,18.70
2022-08-28T05:37:57.341Z,17.10
2022-08-28T05:40:44.864Z,18.20
2022-08-28T05:43:32.490Z,21.57
2022-08-28T05:46:20.640Z,16.87
2022-08-28T05:49:10.187Z,17.73
2022-08-28T05:51:57.492Z,16.43
2022-08-28T05:54:46.213Z,15.40
2022-08-28T05:57:33.484Z,17.77
2022-08-28T06:00:20.574Z,16.00
2022-08-28T06:03:07.690Z,20.23
2022-08-28T06:05:56.272Z,19.47
2022-08-28T06:08:56.138Z,16.97
2022-08-28T06:11:47.377Z,18.13
2022-08-28T06:14:34.849Z,19.30
2022-08-28T06:17:23.855Z,14.67
2022-08-28T06:20:11.318Z,14.83
2022-08-28T06:22:58.600Z,14.93
2022-08-28T06:25:48.946Z,13.63
2022-08-28T06:28:37.285Z,14.83
2022-08-28T06:31:28.802Z,20.17
2022-08-28T06:34:19.416Z,14.83
2022-08-28T06:37:06.305Z,15.33
2022-08-28T06:39:53.041Z,14.87
2022-08-28T06:42:40.239Z,15.97
2022-08-28T06:45:28.260Z,13.77
2022-08-28T06:48:17.724Z,13.53
2022-08-28T06:51:07.616Z,24.27
2022-08-28T06:53:54.936Z,13.77
2022-08-28T06:56:42.218Z,13.43
2022-08-28T06:59:28.854Z,17.17
2022-08-28T07:02:18.697Z,12.50
2022-08-28T07:05:07.088Z,13.07
2022-08-28T07:07:55.241Z,11.67
2022-08-28T07:10:42.066Z,16.07
2022-08-28T07:13:33.329Z,12.60
2022-08-28T07:16:22.616Z,13.63
2022-08-28T07:19:12.563Z,13.37
2022-08-28T07:21:59.790Z,16.50
2022-08-28T07:24:46.694Z,12.87
2022-08-28T07:27:33.661Z,15.30
2022-08-28T07:30:20.893Z,11.67
2022-08-28T07:33:08.744Z,12.50
2022-08-28T07:35:57.701Z,12.13
2022-08-28T07:38:45.268Z,14.47
2022-08-28T07:41:34.344Z,13.70
2022-08-28T07:44:39.288Z,12.50
2022-08-28T07:47:30.391Z,11.43
2022-08-28T07:50:17.703Z,13.17
2022-08-28T07:53:05.828Z,12.87
2022-08-28T07:55:53.187Z,15.10
2022-08-28T07:58:40.362Z,16.67
2022-08-28T08:01:30.074Z,11.80
2022-08-28T08:04:18.246Z,12.20
2022-08-28T08:07:06.858Z,12.53
2022-08-28T08:09:55.029Z,12.07
2022-08-28T08:12:46.117Z,12.40
2022-08-28T08:15:34.937Z,13.60
2022-08-28T08:18:24.109Z,16.23
2022-08-28T08:21:13.789Z,13.83
2022-08-28T08:24:01.102Z,13.57
2022-08-28T08:26:58.830Z,13.90
2022-08-28T08:29:48.792Z,13.80
2022-08-28T08:32:39.217Z,15.90
2022-08-28T08:35:26.510Z,13.13
2022-08-28T08:38:13.998Z,14.27
2022-08-28T08:41:02.693Z,14.07
2022-08-28T08:43:58.501Z,13.57
2022-08-28T08:46:50.796Z,12.90
2022-08-28T08:49:42.704Z,11.57
2022-08-28T08:52:36.485Z,17.43
2022-08-28T08:55:25.056Z,12.97
2022-08-28T08:58:13.456Z,11.80
2022-08-28T09:01:05.276Z,9.80
2022-08-28T09:03:56.789Z,12.90
2022-08-28T09:06:51.253Z,10.57
2022-08-28T09:09:41.896Z,11.10
2022-08-28T09:12:30.972Z,14.47
2022-08-28T09:15:27.325Z,12.37
2022-08-28T09:18:20.765Z,10.63
2022-08-28T09:21:08.316Z,9.47
2022-08-28T09:23:55.919Z,12.30
2022-08-28T09:26:43.288Z,12.50
2022-08-28T09:29:33.482Z,11.93
2022-08-28T09:32:25.258Z,8.47
2022-08-28T09:35:27.094Z,10.17
2022-08-28T09:38:19.819Z,8.17
2022-08-28T09:41:28.747Z,8.90
2022-08-28T09:44:16.307Z,8.63
2022-08-28T09:47:03.172Z,8.80
2022-08-28T09:49:50.328Z,7.73
2022-08-28T09:52:38.351Z,10.23
2022-08-28T09:55:32.820Z,7.83
2022-08-28T09:58:20.005Z,7.77
2022-08-28T10:01:17.051Z,6.93
2022-08-28T10:04:22.027Z,7.27
2022-08-28T10:07:15.637Z,8.90
2022-08-28T10:10:17.917Z,8.03
2022-08-28T10:13:11.521Z,10.23
2022-08-28T10:16:13.911Z,10.07
2022-08-28T10:19:13.556Z,8.37
2022-08-28T10:22:09.487Z,11.30
2022-08-28T10:25:09.828Z,8.93
2022-08-28T10:28:11.848Z,6.60
2022-08-28T10:31:06.590Z,9.40
2022-08-28T10:34:08.427Z,11.13
2022-08-28T10:37:03.146Z,7.43
2022-08-28T10:39:55.455Z,6.77
2022-08-28T10:42:49.197Z,5.17
2022-08-28T10:45:36.703Z,6.67
2022-08-28T10:48:28.053Z,6.07
2022-08-28T10:51:20.548Z,7.20
2022-08-28T10:54:28.564Z,5.60
2022-08-28T10:57:29.294Z,5.43
2022-08-28T11:00:19.908Z,5.70
2022-08-28T11:03:27.029Z,4.73
2022-08-28T11:06:27.231Z,7.53
2022-08-28T11:09:26.624Z,4.40
2022-08-28T11:12:36.850Z,7.28
2022-08-28T11:15:46.608Z,4.95
2022-08-28T11:18:52.611Z,8.48
2022-08-28T11:21:46.567Z,7.55
2022-08-28T11:24:46.435Z,4.90
2022-08-28T11:27:34.844Z,7.05
2022-08-28T11:30:33.011Z,5.45
2022-08-28T11:33:40.932Z,4.50
2022-08-28T11:36:59.199Z,4.97
2022-08-28T11:39:45.992Z,4.30
2022-08-28T11:42:38.615Z,6.97
2022-08-28T11:46:07.034Z,5.43
2022-08-28T11:48:57.076Z,5.87
2022-08-28T11:52:02.354Z,7.00
2022-08-28T11:54:58.763Z,6.93
2022-08-28T12:00:57.774Z,5.63
2022-08-28T12:03:54.729Z,4.67
2022-08-28T12:06:55.476Z,7.00
2022-08-28T12:09:45.238Z,4.90
2022-08-28T12:12:59.864Z,5.47
2022-08-28T12:16:05.414Z,5.20
2022-08-28T12:19:03.936Z,7.60
2022-08-28T12:21:52.363Z,5.77
2022-08-28T12:24:47.585Z,9.23
2022-08-28T12:27:39.338Z,4.03
2022-08-28T12:30:33.292Z,8.17
2022-08-28T12:33:28.216Z,4.83
2022-08-28T12:36:18.529Z,6.40
2022-08-28T12:39:06.818Z,7.53
2022-08-28T12:41:53.854Z,5.47
2022-08-28T12:44:41.167Z,5.97
2022-08-28T12:47:28.104Z,4.70
2022-08-28T12:50:26.750Z,4.53
2022-08-28T12:53:16.243Z,5.63
2022-08-28T12:56:04.453Z,8.20
2022-08-28T12:58:52.183Z,5.80
2022-08-28T13:01:39.979Z,5.00
2022-08-28T13:04:32.715Z,5.10
2022-08-28T13:07:27.475Z,7.50
2022-08-28T13:10:21.905Z,5.20
2022-08-28T13:13:20.389Z,5.00
2022-08-28T13:16:09.431Z,8.00
2022-08-28T13:19:13.414Z,3.67
2022-08-28T13:22:02.036Z,3.70
2022-08-28T13:24:49.626Z,5.00
2022-08-28T13:27:39.906Z,3.72
2022-08-28T13:30:31.332Z,5.03
2022-08-28T13:33:21.658Z,3.97
2022-08-28T13:36:24.768Z,6.33
2022-08-28T13:39:12.523Z,5.43
2022-08-28T13:42:05.844Z,4.90
2022-08-28T13:44:56.102Z,4.27
2022-08-28T13:47:44.604Z,5.13
2022-08-28T13:50:31.949Z,6.90
2022-08-28T13:53:20.645Z,6.03
2022-08-28T13:56:08.304Z,4.10
2022-08-28T13:58:57.676Z,8.60
2022-08-28T14:02:03.115Z,6.33
2022-08-28T14:04:51.278Z,3.93
2022-08-28T14:07:39.479Z,4.50
2022-08-28T14:10:27.488Z,4.13
2022-08-28T14:13:15.060Z,8.40
2022-08-28T14:16:06.059Z,4.47
2022-08-28T14:18:53.828Z,6.70
2022-08-28T14:21:42.499Z,4.07
2022-08-28T14:24:29.864Z,5.70
2022-08-28T14:27:16.713Z,6.63
2022-08-28T14:30:04.025Z,4.13
2022-08-28T14:32:51.040Z,7.40
2022-08-28T14:35:40.667Z,4.40
2022-08-28T14:38:29.140Z,7.03
2022-08-28T14:41:17.392Z,4.37
2022-08-28T14:44:05.520Z,5.63
2022-08-28T14:46:56.101Z,4.50
2022-08-28T14:49:44.476Z,5.03
2022-08-28T14:52:31.569Z,6.50
2022-08-28T14:55:19.771Z,5.70
2022-08-28T14:58:06.477Z,4.63
2022-08-28T15:00:53.892Z,4.80
2022-08-28T15:03:41.398Z,5.37
2022-08-28T15:06:28.566Z,4.87
2022-08-28T15:09:16.161Z,4.00
2022-08-28T15:12:05.076Z,4.83
2022-08-28T15:14:56.887Z,5.80
2022-08-28T15:17:44.397Z,7.27
2022-08-28T15:20:31.521Z,4.00
2022-08-28T15:23:18.662Z,6.93
2022-08-28T15:26:05.536Z,5.80
2022-08-28T15:28:55.824Z,4.60
2022-08-28T15:31:44.389Z,3.90
2022-08-28T15:34:32.475Z,4.20
2022-08-28T15:37:19.911Z,4.87
2022-08-28T15:40:27.064Z,4.73
2022-08-28T15:43:13.887Z,3.93
2022-08-28T15:46:02.240Z,4.77
2022-08-28T15:48:50.077Z,3.67
2022-08-28T15:51:41.358Z,8.13
2022-08-28T15:54:29.253Z,5.13
2022-08-28T15:57:16.500Z,4.33
2022-08-28T16:00:05.558Z,4.77
2022-08-28T16:02:59.903Z,4.17
2022-08-28T16:05:46.711Z,3.97
2022-08-28T16:08:34.333Z,4.13
2022-08-28T16:11:23.256Z,5.40
2022-08-28T16:14:10.791Z,5.43
2022-08-28T16:16:57.461Z,5.13
2022-08-28T16:19:45.909Z,3.90
2022-08-28T16:22:33.023Z,3.80
2022-08-28T16:25:19.975Z,4.17
2022-08-28T16:28:07.568Z,3.53
2022-08-28T16:30:54.631Z,5.80
2022-08-28T16:33:41.835Z,3.73
2022-08-28T16:36:33.217Z,7.57
2022-08-28T16:39:21.028Z,7.63
2022-08-28T16:42:08.410Z,4.10
2022-08-28T16:44:57.250Z,4.20
2022-08-28T16:47:44.447Z,4.30
2022-08-28T16:50:32.606Z,4.80
2022-08-28T16:53:27.161Z,5.13
2022-08-28T16:56:17.866Z,4.57
2022-08-28T16:59:10.221Z,4.47
2022-08-28T17:01:57.989Z,7.90
2022-08-28T17:04:44.794Z,4.30
2022-08-28T17:07:32.028Z,5.20
2022-08-28T17:10:22.999Z,7.73
2022-08-28T17:13:10.254Z,4.70
2022-08-28T17:15:57.461Z,4.60
2022-08-28T17:18:47.485Z,4.53
2022-08-28T17:21:56.986Z,8.37
2022-08-28T17:24:43.912Z,4.57
2022-08-28T17:27:35.078Z,4.33
2022-08-28T17:30:22.172Z,4.40
2022-08-28T17:33:09.364Z,4.53
2022-08-28T17:35:58.713Z,4.23
2022-08-28T17:38:47.439Z,4.07
2022-08-28T17:41:34.786Z,4.33
2022-08-28T17:44:23.178Z,4.37
2022-08-28T17:47:11.928Z,4.00
2022-08-28T17:49:58.989Z,9.07
2022-08-28T17:52:46.052Z,5.03
2022-08-28T17:55:33.391Z,5.53
2022-08-28T17:58:20.219Z,3.90
2022-08-28T18:01:08.681Z,4.13
2022-08-28T18:03:56.322Z,4.50
2022-08-28T18:06:43.650Z,4.57
2022-08-28T18:09:30.597Z,3.60
2022-08-28T18:12:17.553Z,4.77
2022-08-28T18:15:05.005Z,5.70
2022-08-28T18:17:53.771Z,4.20
2022-08-28T18:20:41.006Z,4.53
2022-08-28T18:23:27.987Z,4.33
2022-08-28T18:26:15.266Z,4.53
2022-08-28T18:29:02.427Z,5.97
2022-08-28T18:31:49.490Z,5.53
2022-08-28T18:34:37.512Z,5.80
2022-08-28T18:37:24.565Z,5.07
2022-08-28T18:40:11.698Z,4.93
2022-08-28T18:43:00.024Z,5.17
2022-08-28T18:45:47.014Z,5.00
2022-08-28T18:48:34.010Z,4.77
2022-08-28T18:51:22.235Z,7.67
2022-08-28T18:54:09.234Z,5.50
2022-08-28T18:57:01.399Z,4.87
2022-08-28T18:59:50.987Z,4.70
2022-08-28T19:02:41.671Z,4.23
2022-08-28T19:05:28.716Z,4.67
2022-08-28T19:08:16.791Z,5.23
2022-08-28T19:11:07.642Z,6.47
2022-08-28T19:13:54.865Z,6.60
2022-08-28T19:16:41.856Z,5.67
2022-08-28T19:19:29.031Z,6.00
2022-08-28T19:22:16.444Z,4.73
2022-08-28T19:25:06.249Z,4.97
2022-08-28T19:28:01.370Z,5.17
2022-08-28T19:30:48.839Z,7.70
2022-08-28T19:33:35.826Z,6.03
2022-08-28T19:36:23.056Z,6.23
2022-08-28T19:39:09.793Z,7.27
2022-08-28T19:41:58.007Z,6.07
2022-08-28T19:44:48.064Z,7.53
2022-08-28T19:47:37.491Z,5.43
2022-08-28T19:50:24.720Z,10.63
2022-08-28T19:53:11.763Z,8.60
2022-08-28T19:55:58.857Z,6.97
2022-08-28T19:58:47.237Z,7.10
2022-08-28T20:01:37.768Z,5.90
2022-08-28T20:04:25.060Z,6.93
2022-08-28T20:07:12.644Z,7.63
2022-08-28T20:09:59.737Z,6.57
2022-08-28T20:12:48.505Z,4.97
2022-08-28T20:15:36.967Z,6.97
2022-08-28T20:18:24.373Z,5.53
2022-08-28T20:21:11.901Z,5.13
2022-08-28T20:23:59.028Z,8.07
2022-08-28T20:26:46.020Z,5.83
2022-08-28T20:29:33.784Z,7.30
2022-08-28T20:32:21.895Z,6.93
2022-08-28T20:35:10.504Z,6.53
2022-08-28T20:37:57.773Z,7.07
2022-08-28T20:40:44.905Z,7.00
2022-08-28T20:43:31.951Z,5.77
2022-08-28T20:46:19.736Z,6.70
2022-08-28T20:49:08.888Z,7.30
2022-08-28T20:52:01.089Z,6.77
2022-08-28T20:54:48.407Z,6.97
2022-08-28T20:57:35.952Z,7.77
2022-08-28T21:00:22.931Z,6.60
2022-08-28T21:03:12.157Z,6.17
2022-08-28T21:06:00.328Z,6.33
2022-08-28T21:08:49.848Z,9.60
2022-08-28T21:11:37.144Z,6.33
2022-08-28T21:14:24.757Z,6.90
2022-08-28T21:17:13.239Z,6.23
2022-08-28T21:20:09.273Z,11.77
2022-08-28T21:22:58.660Z,7.67
2022-08-28T21:25:45.971Z,7.13
2022-08-28T21:28:32.968Z,8.73
2022-08-28T21:31:20.773Z,6.87
2022-08-28T21:34:09.185Z,10.50
2022-08-28T21:36:56.288Z,7.73
2022-08-28T21:39:44.436Z,7.90
2022-08-28T21:42:31.507Z,7.60
2022-08-28T21:45:18.344Z,7.07
2022-08-28T21:48:05.285Z,7.33
2022-08-28T21:50:53.093Z,8.47
2022-08-28T21:53:41.769Z,5.50
2022-08-28T21:56:29.857Z,5.93
2022-08-28T21:59:16.941Z,6.10
2022-08-28T22:02:04.181Z,9.43
2022-08-28T22:04:51.195Z,6.53
2022-08-28T22:07:38.260Z,6.53
2022-08-28T22:10:26.183Z,7.43
2022-08-28T22:13:15.837Z,6.53
2022-08-28T22:16:02.899Z,6.70
2022-08-28T22:18:49.895Z,8.07
2022-08-28T22:21:54.468Z,6.93
2022-08-28T22:24:41.836Z,6.50
2022-08-28T22:27:29.282Z,6.30
2022-08-28T22:30:17.743Z,7.30
2022-08-28T22:33:05.207Z,6.93
2022-08-28T22:35:53.010Z,6.00
2022-08-28T22:38:41.067Z,6.80
2022-08-28T22:41:37.431Z,6.27
2022-08-28T22:44:24.531Z,10.93
2022-08-28T22:47:13.081Z,9.17
2022-08-28T22:50:00.999Z,7.43
2022-08-28T22:52:48.292Z,6.60
2022-08-28T22:55:37.880Z,6.43
2022-08-28T22:58:29.322Z,7.40
2022-08-28T23:01:17.676Z,6.13
2022-08-28T23:04:06.616Z,6.47
2022-08-28T23:06:53.360Z,6.67
2022-08-28T23:09:40.580Z,6.80
2022-08-28T23:12:28.652Z,6.13
2022-08-28T23:15:20.395Z,6.87
2022-08-28T23:18:07.526Z,7.57
2022-08-28T23:20:56.692Z,7.30
2022-08-28T23:23:44.564Z,7.57
2022-08-28T23:26:31.528Z,7.97
2022-08-28T23:29:18.865Z,7.57
2022-08-28T23:32:07.206Z,7.20
2022-08-28T23:34:54.330Z,6.43
2022-08-28T23:37:48.004Z,8.33
2022-08-28T23:40:37.357Z,7.03
2022-08-28T23:43:24.636Z,7.87
2022-08-28T23:46:13.575Z,7.70
2022-08-28T23:49:01.076Z,13.83
2022-08-28T23:51:49.221Z,7.73
2022-08-28T23:54:40.709Z,11.73
2022-08-28T23:57:28.744Z,7.50
